createdAt,value
2017-09-23T00:00:01.421Z,1010.89
2017-09-23T00:00:41.866Z,1010.92
2017-09-23T00:01:22.313Z,1010.92
2017-09-23T00:02:02.758Z,1010.95
2017-09-23T00:02:43.161Z,1010.91
2017-09-23T00:03:23.601Z,1010.91
2017-09-23T00:04:04.070Z,1010.93
2017-09-23T00:04:44.519Z,1010.87
2017-09-23T00:05:24.981Z,1010.88
2017-09-23T00:06:05.486Z,1010.91
2017-09-23T00:06:45.898Z,1010.9
2017-09-23T00:07:26.335Z,1010.87
2017-09-23T00:08:06.760Z,1010.87
2017-09-23T00:08:47.219Z,1010.89
2017-09-23T00:09:27.697Z,1010.87
2017-09-23T00:10:08.134Z,1010.9
2017-09-23T00:10:49.460Z,1010.84
2017-09-23T00:11:29.912Z,1010.87
2017-09-23T00:12:10.372Z,1010.81
2017-09-23T00:12:50.812Z,1010.88
2017-09-23T00:13:31.899Z,1010.86
2017-09-23T00:14:12.329Z,1010.86
2017-09-23T00:14:52.810Z,1010.91
2017-09-23T00:15:33.276Z,1010.87
2017-09-23T00:16:13.842Z,1010.89
2017-09-23T00:16:54.311Z,1010.86
2017-09-23T00:17:34.749Z,1010.88
2017-09-23T00:18:15.200Z,1010.87
2017-09-23T00:18:55.636Z,1010.88
2017-09-23T00:19:36.972Z,1010.88
2017-09-23T00:20:17.388Z,1010.88
2017-09-23T00:20:57.850Z,1010.82
2017-09-23T00:21:39.055Z,1010.85
2017-09-23T00:22:19.495Z,1010.9
2017-09-23T00:23:00.034Z,1010.87
2017-09-23T00:23:40.401Z,1010.84
2017-09-23T00:24:20.870Z,1010.87
2017-09-23T00:25:01.313Z,1010.92
2017-09-23T00:25:41.767Z,1010.88
2017-09-23T00:26:22.203Z,1010.88
2017-09-23T00:27:02.626Z,1010.84
2017-09-23T00:27:43.082Z,1010.89
2017-09-23T00:28:23.507Z,1010.87
2017-09-23T00:29:03.970Z,1010.87
2017-09-23T00:29:44.414Z,1010.87
2017-09-23T00:30:24.993Z,1010.86
2017-09-23T00:31:05.345Z,1010.91
2017-09-23T00:31:45.795Z,1010.88
2017-09-23T00:32:26.255Z,1010.85
2017-09-23T00:33:06.725Z,1010.9
2017-09-23T00:33:47.177Z,1010.9
2017-09-23T00:34:27.656Z,1010.93
2017-09-23T00:35:08.094Z,1010.95
2017-09-23T00:35:48.579Z,1010.93
2017-09-23T00:36:29.010Z,1010.91
2017-09-23T00:37:10.410Z,1010.91
2017-09-23T00:37:50.860Z,1010.88
2017-09-23T00:38:31.302Z,1010.91
2017-09-23T00:39:11.737Z,1010.93
2017-09-23T00:39:52.177Z,1010.94
2017-09-23T00:40:32.594Z,1010.95
2017-09-23T00:41:13.053Z,1010.91
2017-09-23T00:41:53.473Z,1010.96
2017-09-23T00:42:33.923Z,1010.92
2017-09-23T00:43:14.365Z,1010.92
2017-09-23T00:43:54.840Z,1010.93
2017-09-23T00:44:35.286Z,1010.96
2017-09-23T00:45:15.746Z,1010.92
2017-09-23T00:45:56.219Z,1010.94
2017-09-23T00:46:36.659Z,1010.96
2017-09-23T00:47:17.091Z,1010.94
2017-09-23T00:47:57.528Z,1010.95
2017-09-23T00:48:37.988Z,1010.95
2017-09-23T00:49:18.444Z,1010.96
2017-09-23T00:49:58.918Z,1010.94
2017-09-23T00:50:39.341Z,1010.91
2017-09-23T00:51:19.780Z,1010.93
2017-09-23T00:52:00.229Z,1010.95
2017-09-23T00:52:40.676Z,1010.93
2017-09-23T00:53:21.140Z,1010.92
2017-09-23T00:54:01.613Z,1010.94
2017-09-23T00:54:42.046Z,1010.93
2017-09-23T00:55:22.494Z,1010.92
2017-09-23T00:56:02.917Z,1010.9
2017-09-23T00:56:43.380Z,1010.9
2017-09-23T00:57:23.833Z,1010.93
2017-09-23T00:58:04.268Z,1010.93
2017-09-23T00:58:44.748Z,1010.89
2017-09-23T00:59:25.204Z,1010.92
2017-09-23T01:00:05.661Z,1010.89
2017-09-23T01:00:46.106Z,1010.93
2017-09-23T01:01:26.587Z,1010.93
2017-09-23T01:02:07.016Z,1010.92
2017-09-23T01:02:47.452Z,1010.91
2017-09-23T01:03:27.882Z,1010.92
2017-09-23T01:04:08.355Z,1010.9
2017-09-23T01:04:48.797Z,1010.92
2017-09-23T01:05:29.333Z,1010.94
2017-09-23T01:06:09.790Z,1010.92
2017-09-23T01:06:50.268Z,1010.92
2017-09-23T01:07:30.761Z,1010.91
2017-09-23T01:08:11.221Z,1010.9
2017-09-23T01:08:51.711Z,1010.87
2017-09-23T01:11:09.570Z,1010.92
2017-09-23T01:11:50.031Z,1010.9
2017-09-23T01:12:30.519Z,1010.93
2017-09-23T01:13:10.976Z,1010.92
2017-09-23T01:13:51.422Z,1010.95
2017-09-23T01:14:31.865Z,1010.92
2017-09-23T01:15:12.332Z,1010.94
2017-09-23T01:15:52.799Z,1010.98
2017-09-23T01:16:33.229Z,1010.97
2017-09-23T01:17:14.250Z,1010.96
2017-09-23T01:17:54.691Z,1010.99
2017-09-23T01:18:35.152Z,1010.99
2017-09-23T01:19:15.590Z,1010.99
2017-09-23T01:19:56.010Z,1010.97
2017-09-23T01:20:36.440Z,1010.96
2017-09-23T01:21:16.922Z,1010.98
2017-09-23T01:21:57.350Z,1010.99
2017-09-23T01:22:37.789Z,1010.98
2017-09-23T01:24:55.621Z,1010.98
2017-09-23T01:26:53.260Z,1010.96
2017-09-23T01:27:33.735Z,1010.97
2017-09-23T01:28:14.201Z,1010.98
2017-09-23T01:30:11.885Z,1010.97
2017-09-23T01:30:53.268Z,1010.97
2017-09-23T01:31:33.774Z,1010.99
2017-09-23T01:32:14.393Z,1010.93
2017-09-23T01:32:54.815Z,1010.95
2017-09-23T01:33:35.252Z,1010.94
2017-09-23T01:34:15.778Z,1010.93
2017-09-23T01:34:56.156Z,1010.93
2017-09-23T01:35:36.628Z,1010.95
2017-09-23T01:36:17.065Z,1010.96
2017-09-23T01:36:57.511Z,1011.02
2017-09-23T01:39:10.293Z,1011
2017-09-23T01:39:50.725Z,1010.98
2017-09-23T01:40:31.186Z,1010.98
2017-09-23T01:41:11.635Z,1011.02
2017-09-23T01:43:40.080Z,1011.01
2017-09-23T01:44:20.536Z,1011
2017-09-23T01:45:01.003Z,1010.99
2017-09-23T01:45:41.443Z,1011.01
2017-09-23T01:46:21.918Z,1011
2017-09-23T01:47:02.374Z,1011.03
2017-09-23T01:48:54.933Z,1010.94
2017-09-23T01:49:35.396Z,1010.95
2017-09-23T01:51:32.984Z,1010.95
2017-09-23T01:52:13.475Z,1010.95
2017-09-23T01:52:53.953Z,1010.91
2017-09-23T01:53:34.450Z,1010.9
2017-09-23T01:54:14.906Z,1010.9
2017-09-23T01:54:55.370Z,1010.89
2017-09-23T01:55:35.831Z,1010.88
2017-09-23T01:56:16.276Z,1010.91
2017-09-23T01:56:56.741Z,1010.87
2017-09-23T01:57:37.197Z,1010.87
2017-09-23T01:58:17.813Z,1010.88
2017-09-23T02:00:10.353Z,1010.81
2017-09-23T02:00:50.801Z,1010.81
2017-09-23T02:01:31.260Z,1010.82
2017-09-23T02:02:12.305Z,1010.79
2017-09-23T02:02:52.748Z,1010.76
2017-09-23T02:03:33.187Z,1010.77
2017-09-23T02:04:13.624Z,1010.75
2017-09-23T02:04:54.107Z,1010.75
2017-09-23T02:05:34.505Z,1010.76
2017-09-23T02:06:14.965Z,1010.77
2017-09-23T02:06:55.415Z,1010.76
2017-09-23T02:07:35.849Z,1010.79
2017-09-23T02:08:16.313Z,1010.79
2017-09-23T02:08:56.772Z,1010.79
2017-09-23T02:09:37.225Z,1010.81
2017-09-23T02:10:17.644Z,1010.76
2017-09-23T02:10:58.095Z,1010.79
2017-09-23T02:11:38.530Z,1010.81
2017-09-23T02:12:18.965Z,1010.83
2017-09-23T02:12:59.405Z,1010.78
2017-09-23T02:13:39.845Z,1010.78
2017-09-23T02:14:20.277Z,1010.79
2017-09-23T02:15:00.719Z,1010.74
2017-09-23T02:15:41.152Z,1010.78
2017-09-23T02:16:21.597Z,1010.79
2017-09-23T02:17:02.090Z,1010.82
2017-09-23T02:17:42.562Z,1010.82
2017-09-23T02:18:23.000Z,1010.79
2017-09-23T02:19:03.458Z,1010.77
2017-09-23T02:19:43.909Z,1010.74
2017-09-23T02:20:24.328Z,1010.74
2017-09-23T02:21:04.766Z,1010.68
2017-09-23T02:21:45.218Z,1010.69
2017-09-23T02:22:25.656Z,1010.71
2017-09-23T02:23:06.097Z,1010.7
2017-09-23T02:23:46.559Z,1010.68
2017-09-23T02:24:27.033Z,1010.66
2017-09-23T02:25:07.494Z,1010.64
2017-09-23T02:25:48.020Z,1010.64
2017-09-23T02:26:28.450Z,1010.63
2017-09-23T02:27:08.876Z,1010.6
2017-09-23T02:27:49.337Z,1010.61
2017-09-23T02:28:29.821Z,1010.6
2017-09-23T02:29:10.232Z,1010.58
2017-09-23T02:29:50.698Z,1010.58
2017-09-23T02:30:31.136Z,1010.6
2017-09-23T02:31:11.622Z,1010.6
2017-09-23T02:33:29.428Z,1010.55
2017-09-23T02:35:27.110Z,1010.59
2017-09-23T02:36:07.606Z,1010.64
2017-09-23T02:36:48.123Z,1010.63
2017-09-23T02:37:28.639Z,1010.69
2017-09-23T02:38:09.089Z,1010.67
2017-09-23T02:38:49.612Z,1010.69
2017-09-23T02:39:30.007Z,1010.71
2017-09-23T02:40:10.464Z,1010.72
2017-09-23T02:40:50.955Z,1010.68
2017-09-23T02:41:31.414Z,1010.74
2017-09-23T02:42:11.858Z,1010.71
2017-09-23T02:42:52.479Z,1010.66
2017-09-23T02:43:32.943Z,1010.69
2017-09-23T02:44:13.346Z,1010.71
2017-09-23T02:44:53.783Z,1010.7
2017-09-23T02:45:34.241Z,1010.72
2017-09-23T02:46:14.694Z,1010.7
2017-09-23T02:46:55.173Z,1010.72
2017-09-23T02:47:35.645Z,1010.75
2017-09-23T02:48:16.173Z,1010.76
2017-09-23T02:48:56.582Z,1010.73
2017-09-23T02:49:37.022Z,1010.76
2017-09-23T02:50:17.469Z,1010.76
2017-09-23T02:50:57.968Z,1010.77
2017-09-23T02:51:38.415Z,1010.77
2017-09-23T02:52:18.840Z,1010.81
2017-09-23T02:52:59.292Z,1010.77
2017-09-23T02:53:39.709Z,1010.78
2017-09-23T02:54:20.217Z,1010.79
2017-09-23T02:56:12.820Z,1010.81
2017-09-23T02:56:53.297Z,1010.8
2017-09-23T02:57:33.775Z,1010.78
2017-09-23T02:58:14.245Z,1010.73
2017-09-23T02:58:55.227Z,1010.75
2017-09-23T02:59:35.668Z,1010.74
2017-09-23T03:00:16.113Z,1010.7
2017-09-23T03:00:56.550Z,1010.68
2017-09-23T03:01:36.976Z,1010.68
2017-09-23T03:02:17.400Z,1010.72
2017-09-23T03:02:57.866Z,1010.7
2017-09-23T03:03:38.312Z,1010.71
2017-09-23T03:04:18.833Z,1010.68
2017-09-23T03:04:59.236Z,1010.67
2017-09-23T03:05:39.695Z,1010.69
2017-09-23T03:06:20.139Z,1010.68
2017-09-23T03:07:00.639Z,1010.72
2017-09-23T03:07:41.048Z,1010.7
2017-09-23T03:08:21.616Z,1010.72
2017-09-23T03:09:02.059Z,1010.69
2017-09-23T03:09:42.528Z,1010.7
2017-09-23T03:10:22.984Z,1010.69
2017-09-23T03:11:03.408Z,1010.71
2017-09-23T03:11:43.871Z,1010.71
2017-09-23T03:12:24.333Z,1010.69
2017-09-23T03:13:04.778Z,1010.67
2017-09-23T03:13:45.226Z,1010.72
2017-09-23T03:14:25.663Z,1010.7
2017-09-23T03:15:06.085Z,1010.7
2017-09-23T03:15:46.562Z,1010.7
2017-09-23T03:16:27.010Z,1010.71
2017-09-23T03:17:07.480Z,1010.73
2017-09-23T03:17:47.936Z,1010.74
2017-09-23T03:18:28.390Z,1010.72
2017-09-23T03:19:08.836Z,1010.74
2017-09-23T03:21:21.553Z,1010.71
2017-09-23T03:22:02.016Z,1010.7
2017-09-23T03:22:42.418Z,1010.69
2017-09-23T03:25:00.211Z,1010.7
2017-09-23T03:25:40.699Z,1010.65
2017-09-23T03:26:21.183Z,1010.69
2017-09-23T03:27:01.656Z,1010.71
2017-09-23T03:27:42.115Z,1010.68
2017-09-23T03:28:22.578Z,1010.67
2017-09-23T03:29:03.037Z,1010.71
2017-09-23T03:29:43.476Z,1010.7
2017-09-23T03:30:23.929Z,1010.71
2017-09-23T03:31:04.375Z,1010.73
2017-09-23T03:31:44.833Z,1010.75
2017-09-23T03:32:25.258Z,1010.7
2017-09-23T03:33:05.691Z,1010.76
2017-09-23T03:33:46.123Z,1010.72
2017-09-23T03:34:26.595Z,1010.72
2017-09-23T03:35:07.072Z,1010.74
2017-09-23T03:35:47.518Z,1010.74
2017-09-23T03:36:27.971Z,1010.72
2017-09-23T03:37:08.411Z,1010.73
2017-09-23T03:37:48.910Z,1010.76
2017-09-23T03:38:29.392Z,1010.73
2017-09-23T03:39:09.810Z,1010.75
2017-09-23T03:39:50.307Z,1010.79
2017-09-23T03:40:31.532Z,1010.78
2017-09-23T03:41:12.149Z,1010.84
2017-09-23T03:41:52.608Z,1010.81
2017-09-23T03:42:33.133Z,1010.81
2017-09-23T03:43:13.577Z,1010.8
2017-09-23T03:43:54.034Z,1010.81
2017-09-23T03:44:34.502Z,1010.8
2017-09-23T03:45:14.947Z,1010.8
2017-09-23T03:45:55.424Z,1010.78
2017-09-23T03:46:35.854Z,1010.79
2017-09-23T03:47:16.353Z,1010.84
2017-09-23T03:47:56.786Z,1010.83
2017-09-23T03:48:37.222Z,1010.85
2017-09-23T03:49:17.679Z,1010.84
2017-09-23T03:49:58.131Z,1010.84
2017-09-23T03:50:38.618Z,1010.89
2017-09-23T03:52:36.281Z,1010.9
2017-09-23T03:53:16.758Z,1010.85
2017-09-23T03:53:57.275Z,1010.92
2017-09-23T03:54:37.759Z,1010.9
2017-09-23T03:55:19.089Z,1010.87
2017-09-23T03:55:59.527Z,1010.91
2017-09-23T03:56:39.993Z,1010.89
2017-09-23T03:57:20.473Z,1010.84
2017-09-23T03:58:00.918Z,1010.88
2017-09-23T03:58:42.053Z,1010.87
2017-09-23T03:59:22.506Z,1010.84
2017-09-23T04:00:02.956Z,1010.89
2017-09-23T04:00:43.390Z,1010.86
2017-09-23T04:01:23.789Z,1010.89
2017-09-23T04:02:04.207Z,1010.84
2017-09-23T04:02:44.658Z,1010.82
2017-09-23T04:03:25.096Z,1010.84
2017-09-23T04:04:05.567Z,1010.84
2017-09-23T04:04:45.995Z,1010.85
2017-09-23T04:05:26.506Z,1010.83
2017-09-23T04:06:06.885Z,1010.83
2017-09-23T04:06:47.338Z,1010.83
2017-09-23T04:07:27.780Z,1010.83
2017-09-23T04:08:08.241Z,1010.85
2017-09-23T04:08:48.705Z,1010.86
2017-09-23T04:09:29.121Z,1010.84
2017-09-23T04:10:09.560Z,1010.84
2017-09-23T04:10:50.010Z,1010.82
2017-09-23T04:11:30.462Z,1010.83
2017-09-23T04:12:10.900Z,1010.86
2017-09-23T04:12:51.423Z,1010.83
2017-09-23T04:13:31.799Z,1010.82
2017-09-23T04:14:12.247Z,1010.84
2017-09-23T04:14:52.706Z,1010.83
2017-09-23T04:15:33.116Z,1010.8
2017-09-23T04:16:13.548Z,1010.82
2017-09-23T04:16:53.993Z,1010.84
2017-09-23T04:17:34.438Z,1010.78
2017-09-23T04:18:14.874Z,1010.8
2017-09-23T04:18:55.338Z,1010.8
2017-09-23T04:19:35.782Z,1010.82
2017-09-23T04:20:16.261Z,1010.83
2017-09-23T04:20:56.681Z,1010.82
2017-09-23T04:21:37.127Z,1010.86
2017-09-23T04:22:17.574Z,1010.85
2017-09-23T04:22:58.012Z,1010.85
2017-09-23T04:23:38.441Z,1010.82
2017-09-23T04:24:18.875Z,1010.78
2017-09-23T04:24:59.321Z,1010.82
2017-09-23T04:25:39.759Z,1010.82
2017-09-23T04:26:20.216Z,1010.82
2017-09-23T04:27:00.652Z,1010.86
2017-09-23T04:27:41.202Z,1010.83
2017-09-23T04:28:21.581Z,1010.85
2017-09-23T04:29:02.738Z,1010.85
2017-09-23T04:29:43.142Z,1010.87
2017-09-23T04:30:23.596Z,1010.85
2017-09-23T04:31:04.054Z,1010.86
2017-09-23T04:31:44.552Z,1010.84
2017-09-23T04:32:25.056Z,1010.85
2017-09-23T04:33:05.591Z,1010.82
2017-09-23T04:33:46.040Z,1010.83
2017-09-23T04:34:26.461Z,1010.81
2017-09-23T04:35:06.902Z,1010.83
2017-09-23T04:35:47.419Z,1010.83
2017-09-23T04:36:27.805Z,1010.81
2017-09-23T04:37:08.259Z,1010.85
2017-09-23T04:39:20.968Z,1010.82
2017-09-23T04:40:01.598Z,1010.87
2017-09-23T04:40:42.093Z,1010.87
2017-09-23T04:41:22.547Z,1010.85
2017-09-23T04:42:02.994Z,1010.87
2017-09-23T04:42:43.419Z,1010.86
2017-09-23T04:43:23.865Z,1010.81
2017-09-23T04:44:04.330Z,1010.88
2017-09-23T04:44:44.850Z,1010.86
2017-09-23T04:45:25.294Z,1010.86
2017-09-23T04:46:05.719Z,1010.87
2017-09-23T04:46:46.157Z,1010.85
2017-09-23T04:47:27.239Z,1010.88
2017-09-23T04:48:07.692Z,1010.91
2017-09-23T04:48:48.117Z,1010.91
2017-09-23T04:49:28.652Z,1010.92
2017-09-23T04:50:09.071Z,1010.91
2017-09-23T04:52:27.201Z,1010.91
2017-09-23T04:53:07.713Z,1010.92
2017-09-23T04:53:48.139Z,1010.95
2017-09-23T04:56:00.838Z,1010.92
2017-09-23T04:56:41.292Z,1010.9
2017-09-23T04:57:21.748Z,1010.94
2017-09-23T04:58:02.192Z,1010.92
2017-09-23T04:58:42.636Z,1010.95
2017-09-23T04:59:23.075Z,1010.96
2017-09-23T05:01:15.627Z,1010.97
2017-09-23T05:01:56.103Z,1011.01
2017-09-23T05:02:36.575Z,1011.02
2017-09-23T05:03:17.048Z,1011.03
2017-09-23T05:03:57.526Z,1011
2017-09-23T05:04:37.955Z,1011
2017-09-23T05:05:18.422Z,1011.02
2017-09-23T05:05:58.850Z,1010.98
2017-09-23T05:06:39.288Z,1010.98
2017-09-23T05:07:19.729Z,1010.98
2017-09-23T05:08:00.187Z,1010.97
2017-09-23T05:08:40.658Z,1010.97
2017-09-23T05:09:21.101Z,1011.01
2017-09-23T05:10:01.552Z,1010.97
2017-09-23T05:10:42.033Z,1010.97
2017-09-23T05:11:22.424Z,1011.01
2017-09-23T05:12:02.875Z,1011
2017-09-23T05:12:43.338Z,1011
2017-09-23T05:13:23.768Z,1011.03
2017-09-23T05:14:04.251Z,1010.99
2017-09-23T05:14:44.709Z,1010.99
2017-09-23T05:15:25.167Z,1011
2017-09-23T05:16:05.681Z,1010.96
2017-09-23T05:16:46.087Z,1010.97
2017-09-23T05:17:26.535Z,1010.97
2017-09-23T05:18:06.998Z,1010.95
2017-09-23T05:18:47.434Z,1010.97
2017-09-23T05:19:27.860Z,1010.99
2017-09-23T05:20:08.339Z,1010.97
2017-09-23T05:20:48.753Z,1010.98
2017-09-23T05:21:29.184Z,1010.98
2017-09-23T05:22:09.627Z,1011.01
2017-09-23T05:22:50.114Z,1011.01
2017-09-23T05:23:30.551Z,1010.98
2017-09-23T05:24:11.023Z,1011.03
2017-09-23T05:24:51.466Z,1011.05
2017-09-23T05:25:31.886Z,1011.06
2017-09-23T05:26:12.341Z,1011.03
2017-09-23T05:26:52.791Z,1011.01
2017-09-23T05:27:33.273Z,1011.07
2017-09-23T05:28:13.727Z,1011.06
2017-09-23T05:28:54.229Z,1011.06
2017-09-23T05:29:34.715Z,1011.08
2017-09-23T05:30:15.188Z,1011.09
2017-09-23T05:30:55.643Z,1011.11
2017-09-23T05:31:36.082Z,1011.13
2017-09-23T05:32:16.540Z,1011.1
2017-09-23T05:32:56.987Z,1011.12
2017-09-23T05:33:37.458Z,1011.11
2017-09-23T05:34:18.700Z,1011.1
2017-09-23T05:34:59.195Z,1011.11
2017-09-23T05:35:39.644Z,1011.12
2017-09-23T05:36:20.244Z,1011.12
2017-09-23T05:37:00.819Z,1011.11
2017-09-23T05:37:41.306Z,1011.11
2017-09-23T05:38:21.818Z,1011.16
2017-09-23T05:39:02.313Z,1011.14
2017-09-23T05:39:42.791Z,1011.15
2017-09-23T05:40:23.222Z,1011.12
2017-09-23T05:41:04.565Z,1011.12
2017-09-23T05:41:45.126Z,1011.11
2017-09-23T05:42:25.612Z,1011.09
2017-09-23T05:43:06.170Z,1011.1
2017-09-23T05:43:46.634Z,1011.08
2017-09-23T05:44:27.102Z,1011.06
2017-09-23T05:45:07.607Z,1011.04
2017-09-23T05:45:48.113Z,1011.05
2017-09-23T05:46:28.673Z,1011.08
2017-09-23T05:47:09.211Z,1011.05
2017-09-23T05:47:49.811Z,1011.07
2017-09-23T05:48:30.328Z,1011.06
2017-09-23T05:49:10.909Z,1011.1
2017-09-23T05:49:51.527Z,1011.11
2017-09-23T05:50:31.989Z,1011.08
2017-09-23T05:51:12.459Z,1011.14
2017-09-23T05:51:52.883Z,1011.14
2017-09-23T05:52:33.298Z,1011.12
2017-09-23T05:53:13.733Z,1011.13
2017-09-23T05:53:54.196Z,1011.14
2017-09-23T05:54:34.619Z,1011.09
2017-09-23T05:55:15.055Z,1011.15
2017-09-23T05:55:55.498Z,1011.17
2017-09-23T05:57:48.060Z,1011.19
2017-09-23T05:58:28.539Z,1011.2
2017-09-23T05:59:09.013Z,1011.2
2017-09-23T05:59:49.456Z,1011.21
2017-09-23T06:00:29.889Z,1011.2
2017-09-23T06:01:10.342Z,1011.22
2017-09-23T06:01:50.743Z,1011.22
2017-09-23T06:02:31.193Z,1011.24
2017-09-23T06:03:11.624Z,1011.21
2017-09-23T06:03:52.125Z,1011.22
2017-09-23T06:04:32.564Z,1011.21
2017-09-23T06:05:13.036Z,1011.24
2017-09-23T06:05:53.464Z,1011.19
2017-09-23T06:06:33.925Z,1011.24
2017-09-23T06:07:14.395Z,1011.23
2017-09-23T06:07:54.864Z,1011.25
2017-09-23T06:08:35.276Z,1011.24
2017-09-23T06:09:16.352Z,1011.21
2017-09-23T06:09:56.797Z,1011.2
2017-09-23T06:10:37.255Z,1011.21
2017-09-23T06:11:17.710Z,1011.2
2017-09-23T06:11:58.129Z,1011.25
2017-09-23T06:12:38.559Z,1011.26
2017-09-23T06:13:19.000Z,1011.27
2017-09-23T06:13:59.439Z,1011.24
2017-09-23T06:14:39.897Z,1011.29
2017-09-23T06:17:07.808Z,1011.35
2017-09-23T06:17:48.324Z,1011.34
2017-09-23T06:18:28.726Z,1011.35
2017-09-23T06:19:09.133Z,1011.35
2017-09-23T06:19:49.584Z,1011.32
2017-09-23T06:20:30.061Z,1011.35
2017-09-23T06:21:10.502Z,1011.32
2017-09-23T06:21:50.932Z,1011.37
2017-09-23T06:22:31.412Z,1011.37
2017-09-23T06:23:11.866Z,1011.35
2017-09-23T06:23:52.340Z,1011.35
2017-09-23T06:24:32.790Z,1011.34
2017-09-23T06:25:13.234Z,1011.4
2017-09-23T06:25:53.678Z,1011.39
2017-09-23T06:26:34.112Z,1011.41
2017-09-23T06:27:14.527Z,1011.41
2017-09-23T06:27:54.983Z,1011.4
2017-09-23T06:28:35.365Z,1011.37
2017-09-23T06:29:15.807Z,1011.34
2017-09-23T06:29:56.340Z,1011.37
2017-09-23T06:30:36.787Z,1011.38
2017-09-23T06:31:17.232Z,1011.35
2017-09-23T06:31:57.683Z,1011.34
2017-09-23T06:32:38.163Z,1011.37
2017-09-23T06:33:18.703Z,1011.36
2017-09-23T06:33:59.182Z,1011.36
2017-09-23T06:34:39.641Z,1011.34
2017-09-23T06:35:20.097Z,1011.32
2017-09-23T06:36:00.561Z,1011.38
2017-09-23T06:36:40.981Z,1011.37
2017-09-23T06:37:21.455Z,1011.38
2017-09-23T06:38:01.935Z,1011.37
2017-09-23T06:38:42.386Z,1011.42
2017-09-23T06:39:22.841Z,1011.43
2017-09-23T06:40:03.273Z,1011.44
2017-09-23T06:40:43.709Z,1011.43
2017-09-23T06:41:24.150Z,1011.47
2017-09-23T06:42:04.582Z,1011.43
2017-09-23T06:42:45.061Z,1011.42
2017-09-23T06:43:25.512Z,1011.41
2017-09-23T06:44:05.974Z,1011.43
2017-09-23T06:44:46.436Z,1011.43
2017-09-23T06:45:26.849Z,1011.46
2017-09-23T06:46:07.331Z,1011.44
2017-09-23T06:46:47.728Z,1011.49
2017-09-23T06:47:28.175Z,1011.49
2017-09-23T06:48:08.617Z,1011.48
2017-09-23T06:50:06.241Z,1011.56
2017-09-23T06:50:46.779Z,1011.58
2017-09-23T06:51:27.233Z,1011.6
2017-09-23T06:52:07.699Z,1011.58
2017-09-23T06:52:48.171Z,1011.63
2017-09-23T06:53:28.663Z,1011.57
2017-09-23T06:54:09.091Z,1011.56
2017-09-23T06:54:49.529Z,1011.59
2017-09-23T06:55:29.984Z,1011.56
2017-09-23T06:56:10.414Z,1011.53
2017-09-23T06:56:50.824Z,1011.52
2017-09-23T06:57:31.295Z,1011.5
2017-09-23T06:58:11.728Z,1011.53
2017-09-23T06:58:52.230Z,1011.55
2017-09-23T06:59:32.614Z,1011.58
2017-09-23T07:00:13.077Z,1011.61
2017-09-23T07:00:53.521Z,1011.6
2017-09-23T07:01:33.974Z,1011.63
2017-09-23T07:02:14.400Z,1011.63
2017-09-23T07:02:54.828Z,1011.63
2017-09-23T07:03:35.270Z,1011.62
2017-09-23T07:04:15.714Z,1011.64
2017-09-23T07:04:56.195Z,1011.63
2017-09-23T07:05:36.631Z,1011.7
2017-09-23T07:06:17.090Z,1011.68
2017-09-23T07:06:57.544Z,1011.64
2017-09-23T07:07:37.977Z,1011.58
2017-09-23T07:08:18.416Z,1011.6
2017-09-23T07:08:58.918Z,1011.55
2017-09-23T07:09:39.421Z,1011.58
2017-09-23T07:10:19.907Z,1011.6
2017-09-23T07:11:00.372Z,1011.57
2017-09-23T07:11:40.828Z,1011.58
2017-09-23T07:12:21.228Z,1011.54
2017-09-23T07:13:01.686Z,1011.56
2017-09-23T07:13:42.144Z,1011.54
2017-09-23T07:14:23.187Z,1011.52
2017-09-23T07:15:03.632Z,1011.58
2017-09-23T07:15:44.085Z,1011.61
2017-09-23T07:16:24.484Z,1011.71
2017-09-23T07:17:04.953Z,1011.7
2017-09-23T07:17:45.400Z,1011.64
2017-09-23T07:18:25.850Z,1011.59
2017-09-23T07:19:06.327Z,1011.62
2017-09-23T07:19:46.765Z,1011.57
2017-09-23T07:20:27.222Z,1011.56
2017-09-23T07:21:07.649Z,1011.63
2017-09-23T07:21:48.097Z,1011.67
2017-09-23T07:22:28.563Z,1011.63
2017-09-23T07:23:09.022Z,1011.74
2017-09-23T07:23:49.440Z,1011.74
2017-09-23T07:24:29.924Z,1011.68
2017-09-23T07:25:10.340Z,1011.69
2017-09-23T07:25:50.776Z,1011.72
2017-09-23T07:27:48.403Z,1011.7
2017-09-23T07:28:28.898Z,1011.7
2017-09-23T07:29:09.373Z,1011.66
2017-09-23T07:29:49.840Z,1011.72
2017-09-23T07:30:30.304Z,1011.7
2017-09-23T07:31:10.776Z,1011.72
2017-09-23T07:31:51.218Z,1011.74
2017-09-23T07:32:31.661Z,1011.77
2017-09-23T07:33:12.113Z,1011.85
2017-09-23T07:33:52.628Z,1012.13
2017-09-23T07:34:32.980Z,1012.18
2017-09-23T07:35:13.427Z,1012.2
2017-09-23T07:35:53.873Z,1012.22
2017-09-23T07:36:34.318Z,1012.28
2017-09-23T07:37:14.790Z,1012.32
2017-09-23T07:37:55.222Z,1012.32
2017-09-23T07:38:35.670Z,1012.42
2017-09-23T07:39:16.116Z,1012.35
2017-09-23T07:39:56.546Z,1012.21
2017-09-23T07:40:36.977Z,1011.99
2017-09-23T07:41:17.442Z,1011.77
2017-09-23T07:41:57.908Z,1011.73
2017-09-23T07:42:38.370Z,1011.74
2017-09-23T07:43:18.807Z,1011.76
2017-09-23T07:43:59.280Z,1011.75
2017-09-23T07:44:39.700Z,1011.98
2017-09-23T07:45:20.144Z,1012.28
2017-09-23T07:46:00.601Z,1012.43
2017-09-23T07:46:41.081Z,1012.41
2017-09-23T07:47:21.537Z,1012.69
2017-09-23T07:48:01.964Z,1012.73
2017-09-23T07:48:42.432Z,1012.69
2017-09-23T07:49:22.880Z,1012.67
2017-09-23T07:50:03.320Z,1012.7
2017-09-23T07:50:43.786Z,1012.69
2017-09-23T07:51:24.220Z,1012.76
2017-09-23T07:52:04.661Z,1012.77
2017-09-23T07:52:45.135Z,1012.8
2017-09-23T07:53:25.575Z,1012.74
2017-09-23T07:54:06.086Z,1012.76
2017-09-23T07:54:46.512Z,1012.77
2017-09-23T07:55:26.960Z,1012.8
2017-09-23T07:56:07.404Z,1012.8
2017-09-23T07:56:47.872Z,1012.8
2017-09-23T07:57:28.329Z,1012.73
2017-09-23T07:58:08.777Z,1012.73
2017-09-23T07:58:49.259Z,1012.76
2017-09-23T07:59:29.709Z,1012.74
2017-09-23T08:00:10.182Z,1012.73
2017-09-23T08:00:50.616Z,1012.71
2017-09-23T08:01:31.075Z,1012.66
2017-09-23T08:02:11.524Z,1012.64
2017-09-23T08:04:39.456Z,1012.6
2017-09-23T08:05:19.938Z,1012.62
2017-09-23T08:06:00.426Z,1012.58
2017-09-23T08:06:40.924Z,1012.58
2017-09-23T08:07:21.381Z,1012.57
2017-09-23T08:08:01.788Z,1012.56
2017-09-23T08:08:42.232Z,1012.49
2017-09-23T08:09:22.702Z,1012.5
2017-09-23T08:10:03.103Z,1012.41
2017-09-23T08:10:43.549Z,1012.41
2017-09-23T08:12:41.257Z,1012.3
2017-09-23T08:13:21.732Z,1012.32
2017-09-23T08:14:02.242Z,1012.31
2017-09-23T08:16:30.155Z,1012.21
2017-09-23T08:17:10.642Z,1012.2
2017-09-23T08:17:51.091Z,1012.18
2017-09-23T08:18:31.552Z,1012.21
2017-09-23T08:19:12.019Z,1012.18
2017-09-23T08:19:52.462Z,1012.15
2017-09-23T08:20:32.898Z,1012.15
2017-09-23T08:21:13.347Z,1012.18
2017-09-23T08:21:53.888Z,1012.15
2017-09-23T08:22:34.306Z,1012.27
2017-09-23T08:23:15.384Z,1012.67
2017-09-23T08:23:55.819Z,1013.05
2017-09-23T08:25:48.392Z,1012.51
2017-09-23T08:26:28.865Z,1012.15
2017-09-23T08:27:09.477Z,1011.99
2017-09-23T08:27:50.024Z,1011.96
2017-09-23T08:28:30.425Z,1011.94
2017-09-23T08:29:10.889Z,1011.92
2017-09-23T08:29:51.346Z,1011.94
2017-09-23T08:30:31.850Z,1011.94
2017-09-23T08:31:12.256Z,1011.95
2017-09-23T08:31:52.747Z,1011.91
2017-09-23T08:32:33.237Z,1011.91
2017-09-23T08:33:13.676Z,1011.92
2017-09-23T08:33:54.147Z,1011.92
2017-09-23T08:34:34.584Z,1011.92
2017-09-23T08:35:15.084Z,1011.95
2017-09-23T08:35:55.481Z,1011.95
2017-09-23T08:36:35.938Z,1011.95
2017-09-23T08:37:16.362Z,1011.98
2017-09-23T08:37:56.858Z,1011.97
2017-09-23T08:40:25.070Z,1011.98
2017-09-23T08:41:05.530Z,1011.97
2017-09-23T08:41:46.013Z,1011.99
2017-09-23T08:42:26.471Z,1012
2017-09-23T08:43:06.899Z,1012
2017-09-23T08:43:47.388Z,1012.01
2017-09-23T08:44:27.809Z,1011.98
2017-09-23T08:45:08.281Z,1012.01
2017-09-23T08:45:48.719Z,1012.01
2017-09-23T08:46:29.189Z,1012.03
2017-09-23T08:47:09.645Z,1011.95
2017-09-23T08:47:50.102Z,1012.02
2017-09-23T08:48:30.564Z,1012.05
2017-09-23T08:49:11.014Z,1012.06
2017-09-23T08:49:52.199Z,1012.09
2017-09-23T08:50:33.553Z,1012.09
2017-09-23T08:51:13.992Z,1012.14
2017-09-23T08:51:54.481Z,1012.19